createdAt,value
2023-01-21T00:00:43.084Z,-0.21
2023-01-21T00:04:38.434Z,-0.06
2023-01-21T00:07:44.799Z,-0.10
2023-01-21T00:20:28.773Z,-0.03
2023-01-21T00:23:39.070Z,-0.04
2023-01-21T00:32:16.248Z,-0.02
2023-01-21T00:35:36.957Z,0.29
2023-01-21T00:42:21.484Z,0.24
2023-01-21T00:45:24.983Z,0.18
2023-01-21T00:48:31.746Z,0.17
2023-01-21T00:51:35.408Z,0.27
2023-01-21T00:54:39.881Z,0.33
2023-01-21T00:57:43.186Z,0.54
2023-01-21T01:00:47.528Z,0.50
2023-01-21T01:03:54.037Z,0.50
2023-01-21T01:06:57.906Z,0.62
2023-01-21T01:10:01.006Z,0.51
2023-01-21T01:13:04.743Z,0.43
2023-01-21T01:16:09.209Z,0.40
2023-01-21T01:19:13.244Z,0.36
2023-01-21T01:22:17.068Z,0.41
2023-01-21T01:25:20.547Z,0.43
2023-01-21T01:28:23.978Z,0.53
2023-01-21T01:31:30.473Z,0.51
2023-01-21T01:34:33.827Z,0.69
2023-01-21T01:37:37.310Z,0.66
2023-01-21T01:40:40.864Z,0.69
2023-01-21T01:44:04.912Z,0.58
2023-01-21T01:47:10.891Z,0.54
2023-01-21T01:50:18.502Z,0.79
2023-01-21T01:53:22.464Z,0.69
2023-01-21T01:56:28.671Z,0.66
2023-01-21T01:59:33.616Z,0.81
2023-01-21T02:02:43.707Z,0.70
2023-01-21T02:05:48.442Z,0.84
2023-01-21T02:08:59.407Z,1.03
2023-01-21T02:12:05.701Z,0.77
2023-01-21T02:15:10.893Z,0.72
2023-01-21T02:18:30.511Z,0.83
2023-01-21T02:22:21.576Z,0.91
2023-01-21T02:25:46.911Z,0.97
2023-01-21T02:29:53.580Z,1.05
2023-01-21T02:33:58.411Z,0.74
2023-01-21T02:37:28.709Z,0.90
2023-01-21T02:40:56.579Z,0.92
2023-01-21T02:44:32.889Z,0.95
2023-01-21T02:47:52.499Z,0.95
2023-01-21T02:50:56.480Z,0.77
2023-01-21T02:53:59.950Z,0.71
2023-01-21T02:57:06.756Z,0.76
2023-01-21T03:00:25.833Z,0.58
2023-01-21T03:03:50.371Z,0.70
2023-01-21T03:07:33.890Z,0.68
2023-01-21T03:20:26.168Z,0.73
2023-01-21T03:23:34.631Z,0.60
2023-01-21T03:30:19.799Z,0.64
2023-01-21T03:33:25.034Z,0.81
2023-01-21T03:36:51.817Z,0.89
2023-01-21T03:40:16.571Z,0.75
2023-01-21T03:43:21.307Z,0.71
2023-01-21T03:46:27.337Z,0.92
2023-01-21T03:49:38.448Z,0.79
2023-01-21T03:52:44.063Z,0.75
2023-01-21T03:55:52.518Z,0.57
2023-01-21T03:58:56.099Z,0.80
2023-01-21T04:01:59.300Z,0.66
2023-01-21T04:05:02.808Z,0.68
2023-01-21T04:08:06.503Z,0.67
2023-01-21T04:11:11.579Z,0.62
2023-01-21T04:14:15.088Z,0.57
2023-01-21T04:17:22.008Z,0.73
2023-01-21T04:20:35.997Z,0.60
2023-01-21T04:24:10.257Z,0.62
2023-01-21T04:38:39.502Z,0.49
2023-01-21T04:41:45.608Z,0.53
2023-01-21T04:44:48.868Z,0.53
2023-01-21T04:56:31.460Z,0.60
2023-01-21T05:00:25.953Z,0.75
2023-01-21T05:08:54.930Z,0.65
2023-01-21T05:11:58.335Z,0.66
2023-01-21T05:15:14.503Z,0.56
2023-01-21T05:18:32.979Z,0.73
2023-01-21T05:21:36.540Z,0.51
2023-01-21T05:29:12.580Z,0.59
2023-01-21T05:32:16.201Z,0.64
2023-01-21T05:35:24.022Z,0.58
2023-01-21T05:38:27.633Z,0.67
2023-01-21T05:41:31.520Z,0.71
2023-01-21T05:44:35.204Z,0.59
2023-01-21T05:47:38.835Z,0.57
2023-01-21T05:50:42.110Z,0.65
2023-01-21T05:53:45.356Z,0.44
2023-01-21T05:56:48.242Z,0.62
2023-01-21T05:59:51.448Z,0.59
2023-01-21T06:06:52.443Z,0.69
2023-01-21T06:09:55.612Z,0.67
2023-01-21T06:12:59.051Z,0.73
2023-01-21T06:16:06.092Z,0.61
2023-01-21T06:19:09.312Z,0.44
2023-01-21T06:22:16.006Z,0.62
2023-01-21T06:25:19.129Z,0.48
2023-01-21T06:28:22.760Z,0.59
2023-01-21T06:31:26.699Z,0.44
2023-01-21T06:34:31.964Z,0.62
2023-01-21T06:37:35.444Z,0.64
2023-01-21T06:40:44.358Z,0.52
2023-01-21T06:43:47.676Z,0.64
2023-01-21T06:47:00.763Z,0.59
2023-01-21T06:50:07.205Z,0.58
2023-01-21T06:53:12.859Z,0.40
2023-01-21T06:56:16.440Z,0.51
2023-01-21T06:59:24.477Z,0.27
2023-01-21T07:02:28.755Z,0.33
2023-01-21T07:05:34.430Z,0.37
2023-01-21T07:08:38.525Z,0.42
2023-01-21T07:11:43.208Z,0.29
2023-01-21T07:14:46.056Z,0.55
2023-01-21T07:17:48.965Z,0.50
2023-01-21T07:20:51.955Z,0.62
2023-01-21T07:23:56.603Z,0.58
2023-01-21T07:26:59.449Z,0.50
2023-01-21T07:30:02.348Z,0.50
2023-01-21T07:33:07.496Z,0.51
2023-01-21T07:36:10.335Z,0.59
2023-01-21T07:39:13.575Z,0.52
2023-01-21T07:42:16.566Z,0.52
2023-01-21T07:45:22.725Z,0.56
2023-01-21T07:48:29.005Z,0.60
2023-01-21T07:51:32.189Z,0.65
2023-01-21T07:54:35.055Z,0.62
2023-01-21T07:57:42.537Z,0.63
2023-01-21T08:00:45.682Z,0.85
2023-01-21T08:03:48.426Z,0.80
2023-01-21T08:06:56.959Z,0.82
2023-01-21T08:09:59.947Z,0.75
2023-01-21T08:20:58.423Z,0.80
2023-01-21T08:24:04.667Z,0.89
2023-01-21T08:31:08.264Z,1.06
2023-01-21T08:34:11.685Z,0.93
2023-01-21T08:37:14.913Z,0.79
2023-01-21T08:40:22.335Z,0.88
2023-01-21T08:43:26.351Z,0.98
2023-01-21T08:46:29.644Z,0.90
2023-01-21T08:49:32.955Z,0.99
2023-01-21T08:56:14.055Z,0.92
2023-01-21T09:16:45.029Z,0.72
2023-01-21T09:19:48.343Z,0.82
2023-01-21T09:22:51.792Z,0.86
2023-01-21T09:26:07.417Z,0.95
2023-01-21T09:29:11.128Z,0.98
2023-01-21T09:32:14.095Z,1.03
2023-01-21T09:35:17.316Z,1.21
2023-01-21T09:38:20.366Z,1.42
2023-01-21T09:41:41.901Z,1.34
2023-01-21T09:44:50.057Z,1.23
2023-01-21T09:47:55.342Z,1.25
2023-01-21T09:51:03.384Z,1.04
2023-01-21T09:54:43.542Z,1.06
2023-01-21T09:58:08.118Z,1.07
2023-01-21T10:01:14.001Z,1.12
2023-01-21T10:04:55.160Z,1.14
2023-01-21T10:08:14.152Z,1.13
2023-01-21T10:11:41.484Z,1.06
2023-01-21T10:15:02.576Z,1.18
2023-01-21T10:18:13.923Z,0.99
2023-01-21T10:21:26.866Z,1.09
2023-01-21T10:24:37.119Z,1.08
2023-01-21T10:27:42.741Z,1.01
2023-01-21T10:30:51.060Z,1.03
2023-01-21T10:33:55.323Z,1.00
2023-01-21T10:37:20.066Z,0.99
2023-01-21T10:40:43.642Z,1.07
2023-01-21T10:43:58.319Z,1.07
2023-01-21T10:47:22.956Z,1.03
2023-01-21T10:50:25.854Z,1.08
2023-01-21T10:53:47.066Z,1.18
2023-01-21T10:57:17.003Z,1.22
2023-01-21T11:00:25.124Z,1.29
2023-01-21T11:03:53.563Z,1.26
2023-01-21T11:07:02.186Z,1.22
2023-01-21T11:10:07.459Z,1.49
2023-01-21T11:13:13.934Z,1.56
2023-01-21T11:16:51.005Z,1.52
2023-01-21T11:20:02.573Z,1.40
2023-01-21T11:23:06.814Z,1.54
2023-01-21T11:26:24.701Z,1.54
2023-01-21T11:29:40.142Z,1.49
2023-01-21T11:32:43.171Z,1.59
2023-01-21T11:35:46.444Z,1.53
2023-01-21T11:39:02.064Z,1.50
2023-01-21T11:42:16.509Z,1.55
2023-01-21T11:45:32.107Z,1.67
2023-01-21T11:48:35.505Z,1.75
2023-01-21T11:51:40.722Z,1.77
2023-01-21T11:54:44.574Z,1.65
2023-01-21T11:57:57.165Z,1.75
2023-01-21T12:01:04.483Z,1.82
2023-01-21T12:04:14.288Z,1.83
2023-01-21T12:07:22.629Z,1.81
2023-01-21T12:10:30.737Z,1.85
2023-01-21T12:13:55.496Z,1.81
2023-01-21T12:17:21.527Z,1.82
2023-01-21T12:20:34.114Z,1.86
2023-01-21T12:24:01.235Z,1.83
2023-01-21T12:27:10.228Z,1.81
2023-01-21T12:30:38.312Z,1.70
2023-01-21T12:34:25.552Z,1.69
2023-01-21T12:37:38.283Z,1.56
2023-01-21T12:41:08.882Z,1.40
2023-01-21T12:44:14.626Z,1.57
2023-01-21T12:47:34.947Z,1.48
2023-01-21T12:50:50.095Z,1.57
2023-01-21T12:54:06.169Z,1.54
2023-01-21T12:57:52.563Z,1.44
2023-01-21T13:00:58.368Z,1.39
2023-01-21T13:04:25.477Z,1.10
2023-01-21T13:07:46.325Z,1.20
2023-01-21T13:11:07.154Z,1.34
2023-01-21T13:14:09.919Z,1.20
2023-01-21T13:17:20.747Z,1.16
2023-01-21T13:20:24.191Z,1.18
2023-01-21T13:23:49.778Z,1.19
2023-01-21T13:27:01.860Z,1.09
2023-01-21T13:30:26.962Z,1.11
2023-01-21T13:33:48.664Z,1.17
2023-01-21T13:37:00.864Z,1.15
2023-01-21T13:40:27.706Z,1.12
2023-01-21T13:43:55.427Z,1.08
2023-01-21T13:47:35.327Z,1.05
2023-01-21T13:51:24.848Z,0.89
2023-01-21T13:54:55.976Z,0.86
2023-01-21T13:58:15.353Z,0.84
2023-01-21T14:01:31.653Z,0.89
2023-01-21T14:04:48.002Z,0.75
2023-01-21T14:07:50.769Z,0.73
2023-01-21T14:11:02.209Z,0.73
2023-01-21T14:14:04.904Z,0.77
2023-01-21T14:17:45.547Z,0.84
2023-01-21T14:21:08.338Z,0.78
2023-01-21T14:24:45.355Z,0.60
2023-01-21T14:28:10.054Z,0.46
2023-01-21T14:31:19.096Z,0.59
2023-01-21T14:34:31.667Z,0.61
2023-01-21T14:37:44.310Z,0.64
2023-01-21T14:41:02.816Z,0.64
2023-01-21T14:44:35.904Z,0.61
2023-01-21T14:47:38.556Z,0.71
2023-01-21T14:50:51.243Z,0.58
2023-01-21T14:54:01.094Z,0.60
2023-01-21T14:57:18.119Z,0.62
2023-01-21T15:00:47.284Z,0.54
2023-01-21T15:03:51.206Z,0.59
2023-01-21T15:18:40.532Z,0.26
2023-01-21T15:21:44.072Z,0.42
2023-01-21T15:25:18.802Z,0.39
2023-01-21T15:28:43.911Z,0.40
2023-01-21T15:31:46.874Z,0.33
2023-01-21T15:34:54.686Z,0.25
2023-01-21T15:38:08.286Z,0.30
2023-01-21T15:41:25.408Z,0.34
2023-01-21T15:44:51.971Z,0.40
2023-01-21T15:48:10.559Z,0.40
2023-01-21T15:51:38.846Z,0.38
2023-01-21T15:55:06.408Z,0.43
2023-01-21T15:58:28.625Z,0.32
2023-01-21T16:01:39.653Z,0.27
2023-01-21T16:05:00.179Z,0.43
2023-01-21T16:08:18.538Z,0.40
2023-01-21T16:11:49.663Z,0.38
2023-01-21T16:15:10.916Z,0.40
2023-01-21T16:18:37.708Z,0.26
2023-01-21T16:21:45.816Z,0.18
2023-01-21T16:32:42.883Z,0.27
2023-01-21T16:46:40.666Z,0.33
2023-01-21T16:49:44.302Z,0.20
2023-01-21T16:52:48.130Z,0.24
2023-01-21T16:55:57.580Z,0.21
2023-01-21T16:59:00.555Z,0.34
2023-01-21T17:02:05.308Z,0.43
2023-01-21T17:05:14.273Z,0.48
2023-01-21T17:08:19.695Z,0.48
2023-01-21T17:11:23.344Z,0.57
2023-01-21T17:14:29.987Z,0.57
2023-01-21T17:17:36.215Z,0.58
2023-01-21T17:20:48.182Z,0.55
2023-01-21T17:23:57.331Z,0.55
2023-01-21T17:27:11.632Z,0.62
2023-01-21T17:30:27.482Z,0.62
2023-01-21T17:33:31.040Z,0.62
2023-01-21T17:36:39.026Z,0.65
2023-01-21T17:39:50.885Z,0.68
2023-01-21T17:42:55.060Z,0.71
2023-01-21T17:45:58.318Z,0.75
2023-01-21T17:49:08.173Z,0.77
2023-01-21T17:52:20.364Z,0.78
2023-01-21T17:55:33.055Z,0.84
2023-01-21T17:58:48.363Z,0.81
2023-01-21T18:01:52.937Z,0.84
2023-01-21T18:04:55.790Z,0.76
2023-01-21T18:07:59.461Z,0.84
2023-01-21T18:11:03.163Z,0.88
2023-01-21T18:14:06.028Z,0.84
2023-01-21T18:17:18.254Z,0.88
2023-01-21T18:20:24.667Z,0.83
2023-01-21T18:23:28.134Z,0.79
2023-01-21T18:26:33.823Z,0.84
2023-01-21T18:29:36.651Z,0.82
2023-01-21T18:32:42.535Z,0.77
2023-01-21T18:35:48.022Z,0.85
2023-01-21T18:38:50.969Z,0.87
2023-01-21T18:41:54.196Z,0.82
2023-01-21T18:44:57.071Z,0.77
2023-01-21T18:48:00.431Z,0.82
2023-01-21T18:51:03.512Z,0.81
2023-01-21T18:54:07.581Z,0.77
2023-01-21T18:57:14.489Z,0.78
2023-01-21T19:00:25.557Z,0.81
2023-01-21T19:03:28.424Z,0.84
2023-01-21T19:06:31.649Z,0.78
2023-01-21T19:09:40.911Z,0.81
2023-01-21T19:12:44.924Z,0.83
2023-01-21T19:15:49.268Z,0.75
2023-01-21T19:18:52.169Z,0.70
2023-01-21T19:21:56.328Z,0.67
2023-01-21T19:24:59.995Z,0.73
2023-01-21T19:28:04.280Z,0.66
2023-01-21T19:31:08.769Z,0.79
2023-01-21T19:34:12.026Z,0.75
2023-01-21T19:37:17.080Z,0.75
2023-01-21T19:40:22.747Z,0.70
2023-01-21T19:43:25.878Z,0.68
2023-01-21T19:46:31.671Z,0.77
2023-01-21T19:49:35.256Z,0.85
2023-01-21T19:52:38.422Z,0.88
2023-01-21T19:55:42.633Z,0.86
2023-01-21T19:58:45.883Z,0.84
2023-01-21T20:01:51.246Z,0.89
2023-01-21T20:04:55.843Z,0.87
2023-01-21T20:08:00.088Z,0.79
2023-01-21T20:11:03.664Z,0.83
2023-01-21T20:14:06.754Z,0.77
2023-01-21T20:17:15.974Z,0.82
2023-01-21T20:20:25.887Z,0.79
2023-01-21T20:23:31.261Z,0.81
2023-01-21T20:26:35.980Z,0.82
2023-01-21T20:29:40.067Z,0.87
2023-01-21T20:32:49.229Z,0.86
2023-01-21T20:35:56.826Z,0.86
2023-01-21T20:38:59.997Z,0.80
2023-01-21T20:42:03.360Z,0.82
2023-01-21T20:45:06.883Z,0.76
2023-01-21T20:48:21.126Z,0.83
2023-01-21T20:51:25.052Z,0.91
2023-01-21T20:54:28.379Z,0.87
2023-01-21T20:57:33.717Z,0.95
2023-01-21T21:00:39.270Z,0.93
2023-01-21T21:03:42.559Z,1.00
2023-01-21T21:06:45.911Z,0.95
2023-01-21T21:09:49.125Z,0.92
2023-01-21T21:12:52.603Z,0.93
2023-01-21T21:15:55.486Z,0.92
2023-01-21T21:18:59.548Z,0.99
2023-01-21T21:22:02.690Z,0.95
2023-01-21T21:25:05.980Z,0.93
2023-01-21T21:28:14.523Z,0.97
2023-01-21T21:31:18.574Z,0.93
2023-01-21T21:34:24.067Z,0.94
2023-01-21T21:37:27.164Z,0.81
2023-01-21T21:40:30.645Z,0.73
2023-01-21T21:43:35.620Z,0.73
2023-01-21T21:46:58.864Z,0.80
2023-01-21T21:50:02.050Z,0.73
2023-01-21T21:53:05.329Z,0.75
2023-01-21T21:56:11.038Z,0.75
2023-01-21T21:59:14.465Z,0.83
2023-01-21T22:02:17.962Z,0.85
2023-01-21T22:05:21.039Z,0.79
2023-01-21T22:08:25.088Z,0.84
2023-01-21T22:11:29.077Z,0.94
2023-01-21T22:14:31.931Z,0.93
2023-01-21T22:17:34.802Z,0.94
2023-01-21T22:20:38.083Z,0.90
2023-01-21T22:23:41.273Z,0.91
2023-01-21T22:26:44.196Z,1.02
2023-01-21T22:29:47.133Z,0.90
2023-01-21T22:32:49.995Z,0.91
2023-01-21T22:35:52.812Z,0.97
2023-01-21T22:38:55.818Z,1.04
2023-01-21T22:42:00.418Z,1.11
2023-01-21T22:45:05.468Z,1.14
2023-01-21T22:48:08.405Z,1.04
2023-01-21T22:51:13.140Z,1.12
2023-01-21T22:54:16.075Z,1.10
2023-01-21T22:57:19.248Z,1.15
2023-01-21T23:00:39.619Z,1.16
2023-01-21T23:03:43.115Z,1.10
2023-01-21T23:06:47.751Z,1.00
2023-01-21T23:09:50.729Z,1.02
2023-01-21T23:12:53.828Z,1.07
2023-01-21T23:15:56.819Z,1.00
2023-01-21T23:18:59.750Z,1.07
2023-01-21T23:22:02.715Z,1.07
2023-01-21T23:25:06.156Z,1.10
2023-01-21T23:28:09.329Z,1.12
2023-01-21T23:31:15.246Z,1.03
2023-01-21T23:34:20.326Z,1.14
2023-01-21T23:37:23.381Z,1.23
2023-01-21T23:40:26.428Z,1.21
2023-01-21T23:43:29.393Z,1.18
2023-01-21T23:46:32.476Z,1.24
2023-01-21T23:49:35.452Z,1.24
2023-01-21T23:52:40.175Z,1.28
2023-01-21T23:55:43.429Z,1.31
2023-01-21T23:58:46.570Z,1.23
